Tiempo atmosférico en la estación meteorológica de Villamayor de los Montes, Burgos (882 m.)



Fecha
DESCASC
Temp. máxima en grados centígrados (hora)
DESCASC
Temp. mínima en grados centígrados (hora)
DESCASC
Temp. media en grados centígrados
DESCASC
Racha de viento máxima en m/sg (hora)
DESCASC
Velocidad máxima media en intervalos de 10 minutos(hora)
DESCASC
Precipitaciones diarias en mm
DESCASC
Precipitaciones de 00:00 a 06:00 en mm
DESCASC
Precipitaciones de 06:00 a 12:00 en mm
DESCASC
Precipitaciones de 12:00 a 18:00 en mm
DESCASC
Precipitaciones de 18:00 a 24:00 en mm
DESCASC
14-02-2019 17.6 (17:00) 0.2 (08:50) 8.9 8.33 (06:10) 6.11 (12:50) 0 0 0 0 0
13-02-2019 15 (17:10) -2.4 (07:50) 6.3 3.89 (13:50) 2.22 (21:10) 0 0 0 0 0
12-02-2019 12.3 (17:20) -2.3 (08:50) 5 8.33 (00:20) 3.89 (00:20) 0 0 0 0 0
11-02-2019 8.2 (15:50) -0.7 (08:50) 3.7 11.11 (12:10) 6.39 (12:30) 0 0 0 0 0
10-02-2019 10.3 (17:00) 3.3 (00:00) 6.8 14.72 (11:00) 10 (11:30) 0 0 0 0 0
09-02-2019 10.4 (16:40) 3 (00:00) 6.7 7.78 (15:00) 5.28 (15:40) 0 0 0 0 0
08-02-2019 11.6 (16:30) 1.2 (00:00) 6.4 9.44 (13:40) 5.83 (15:40) 0 0 0 0 0
07-02-2019 11.6 (15:50) 1.6 (00:00) 6.6 6.94 (08:10) 4.17 (07:10) 0 0 0 0 0
06-02-2019 13.3 (16:40) -0.9 (-00:0) 6.2 6.39 (17:00) 3.89 (22:40) 0 0 0 0 0
05-02-2019 12.3 (17:30) -0.6 (-00:0) 5.9 3.33 (15:00) 1.94 (01:50) 0 0 0 0 0
04-02-2019 7.2 (16:30) -4.3 (-00:0) 1.4 4.17 (14:10) 2.22 (10:40) 0 0 0 0 0
03-02-2019 3.1 (15:20) -3.5 (-00:0) -0.2 13.33 (16:10) 8.33 (15:30) 1 1 0 0 0
02-02-2019 2 (15:00) -0.9 (-00:0) 0.6 13.33 (12:50) 8.33 (12:50) 0.8 0.2 0.6 0 0
01-02-2019 8 (00:10) 0.8 (00:00) 4.4 21.67 (14:00) 14.17 (14:10) 1.4 0.2 0 0.4 0.8
31-01-2019 9.9 (14:00) 5.5 (00:00) 7.7 17.78 (16:30) 11.11 (18:30) 6.4 2 0.2 0.4 3.8
30-01-2019 6.4 (15:20) -0.5 (-00:0) 3 11.11 (15:00) 6.94 (21:20) 6.6 0 0 0.4 6.2
29-01-2019 8.9 (16:20) -1.4 (-00:0) 3.7 15.83 (16:30) 8.33 (16:30) 1.2 0 0 1.2 0
28-01-2019 8.3 (15:30) -1.5 (-00:0) 3.4 9.17 (13:10) 5.56 (15:40) 0 0 0 0 0
27-01-2019 8.1 (15:00) -0.8 (-00:0) 3.7 11.67 (15:40) 5.56 (15:30) 0 0 0 0 0
26-01-2019 10.1 (17:10) -1.6 (-00:0) 4.3 6.67 (23:59) 4.72 (23:50) 0 0 0 0 0
25-01-2019 8.8 (15:40) 3 (00:00) 5.9 15.83 (11:50) 10.56 (11:50) 0 0 0 0 0
24-01-2019 7.8 (17:20) 4.6 (00:00) 6.2 14.17 (18:30) 9.17 (18:30) 3 0.2 2.4 0.4 0
23-01-2019 8.8 (14:10) 1.9 (00:00) 5.4 11.67 (23:00) 6.94 (23:10) 0.2 0 0 0 0.2
22-01-2019 3.7 (17:00) -2.1 (-00:0) 0.8 8.33 (14:00) 4.44 (13:10) 0.8 0 0.2 0.6 0
21-01-2019 5.2 (16:30) -0.9 (-00:0) 2.1 16.67 (12:10) 8.61 (12:10) 0 0 0 0 0
20-01-2019 6.5 (14:50) 0.7 (00:00) 3.6 11.94 (14:30) 7.5 (14:30) 0.4 0.4 0 0 0
19-01-2019 2.9 (23:10) 0.1 (00:00) 1.5 8.89 (19:50) 5.28 (19:50) 11 0 0 5.4 5.6

Gráficas

Temp. máximas Temp. mínimas Temp. medias Precipitaciones Rachas de viento máximas Velocidades máximas media en intervalos de 10 minutos

Datos horarios

Fecha y hora oficial Temperatura (ºC) Velocidad del viento (km/h) Dirección del viento Racha (km/h) Dirección de racha Precipitación (mm) Presión (hPa) Tendencia (hPa) Humedad (%)
2019-02-17 23:00:00 6.6 12 Sudeste 20 Sudeste 0 -- -- 40
2019-02-17 22:00:00 6.9 12 Sudeste 19 Sudeste 0 -- -- 38
2019-02-17 21:00:00 7.7 14 Sur 24 Sudeste 0 -- -- 36
2019-02-17 20:00:00 9.2 17 Sur 23 Sur 0 -- -- 32
2019-02-17 19:00:00 11.3 16 Sur 22 Sur 0 -- -- 28
2019-02-17 18:00:00 14.6 15 Sur 31 Sudeste 0 -- -- 23
2019-02-17 17:00:00 15.8 13 Sudeste 28 Sudeste 0 -- -- 20
2019-02-17 16:00:00 16.1 14 Sur 36 Sur 0 -- -- 20
2019-02-17 15:00:00 15.6 19 Sur 32 Sur 0 -- -- 23
2019-02-17 14:00:00 14.9 21 Sur 31 Sur 0 -- -- 22
2019-02-17 13:00:00 14.1 13 Sudeste 26 Sudeste 0 -- -- 26
2019-02-17 12:00:00 12.8 13 Sudeste 21 Sudeste 0 -- -- 26
2019-02-17 11:00:00 10.8 12 Sudeste 25 Sudeste 0 -- -- 28
2019-02-17 10:00:00 8.6 11 Sudeste 24 Sudeste 0 -- -- 33
2019-02-17 09:00:00 5.7 11 Sudeste 26 Este 0 -- -- 38
2019-02-17 08:00:00 5.2 15 Sudeste 24 Sudeste 0 -- -- 39
2019-02-17 07:00:00 4.8 12 Sudeste 21 Sudeste 0 -- -- 41
2019-02-17 06:00:00 4.6 6 Sudeste 18 Este 0 -- -- 43
2019-02-17 05:00:00 5 11 Sudeste 18 Sudeste 0 -- -- 43
2019-02-17 04:00:00 4.9 7 Sudeste 21 Sudeste 0 -- -- 45
2019-02-17 03:00:00 6.1 12 Sudeste 18 Sudeste -- -- -- 43
2019-02-17 02:00:00 6 12 Sudeste 21 Este 0 -- -- 50
2019-02-17 01:00:00 6.9 11 Sudeste 18 Sudeste 0 -- -- 47
2019-02-17 00:00:00 7.5 9 Sudeste 15 Sudeste 0 -- -- 43
2019-02-16 23:00:00 8.4 8 Sudeste 22 Sudeste 0 -- -- 41
2019-02-16 22:00:00 9.1 12 Sudeste 24 Sudeste 0 -- -- 39
2019-02-16 21:00:00 9.5 12 Sudeste 20 Sudeste 0 -- -- 39
2019-02-16 20:00:00 10.4 11 Sudeste 19 Sudeste 0 -- -- 36
2019-02-16 19:00:00 12.8 13 Sudeste 25 Sudeste 0 -- -- 35
2019-02-16 18:00:00 15.4 12 Sudeste 27 Sudeste 0 -- -- 34
2019-02-16 17:00:00 16.6 16 Sur 32 Sudeste 0 -- -- 35
2019-02-16 16:00:00 16.6 19 Sur 35 Sur 0 -- -- 37
2019-02-16 15:00:00 16.4 19 Sur 32 Sur 0 -- -- 38
2019-02-16 14:00:00 15.6 20 Sur 38 Sur 0 -- -- 39
2019-02-16 13:00:00 14.8 19 Sur 33 Sur 0 -- -- 41
2019-02-16 12:00:00 12.3 10 Sur 17 Sur 0 -- -- 55
2019-02-16 11:00:00 6.3 3 Oeste 5 Oeste 0 -- -- 71
2019-02-16 10:00:00 2.5 0 Calma 4 Oeste 0 -- -- 79
2019-02-16 09:00:00 -1.4 0 Calma 4 Norte 0 -- -- 80
2019-02-16 08:00:00 0.1 3 Nordeste 8 Nordeste 0 -- -- 76
2019-02-16 07:00:00 0.1 5 Nordeste 8 Nordeste 0 -- -- 80
2019-02-16 06:00:00 0.3 4 Este 9 Este 0 -- -- 81
2019-02-16 05:00:00 0 5 Este 8 Este 0 -- -- 84
2019-02-16 04:00:00 -0.1 0 Calma 8 Este 0 -- -- 81
2019-02-16 03:00:00 1.3 4 Nordeste 8 Nordeste 0 -- -- 81
2019-02-16 02:00:00 1 3 Norte 6 Este 0 -- -- 79
2019-02-16 01:00:00 1.7 0 Calma 9 Este 0 -- -- 77
2019-02-16 00:00:00 2.9 3 Nordeste 8 Nordeste 0 -- -- 77
2019-02-15 23:00:00 3.9 4 Este 8 Norte 0 -- -- 74
2019-02-15 22:00:00 5.4 3 Norte 11 Este 0 -- -- 69
2019-02-15 21:00:00 8.2 8 Nordeste 13 Nordeste 0 -- -- 61
2019-02-15 20:00:00 9.6 8 Nordeste 14 Nordeste 0 -- -- 58
2019-02-15 19:00:00 12 6 Nordeste 9 Nordeste 0 -- -- 43
2019-02-15 18:00:00 15.3 7 Norte 14 Noroeste 0 -- -- 36
2019-02-15 17:00:00 16.1 6 Norte 13 Norte 0 -- -- 34
2019-02-15 16:00:00 15.9 5 Norte 13 Norte 0 -- -- 36
2019-02-15 15:00:00 14.7 4 Noroeste 12 Noroeste 0 -- -- 41
2019-02-15 14:00:00 13.5 4 Noroeste 9 Oeste 0 -- -- 44
2019-02-15 13:00:00 11.7 4 Oeste 10 Norte 0 -- -- 50
2019-02-15 12:00:00 9.4 4 Oeste 7 Oeste 0 -- -- 58
2019-02-15 11:00:00 6.5 2 Noroeste 5 Oeste 0 -- -- 62
2019-02-15 10:00:00 2.6 0 Calma 6 Este 0 -- -- 76
2019-02-15 09:00:00 -0.9 4 Este 6 Este 0 -- -- 81
2019-02-15 08:00:00 -1.5 0 Calma 6 Sudoeste 0 -- -- 80
2019-02-15 07:00:00 1 5 Este 14 Este 0 -- -- 71
2019-02-15 06:00:00 -0.3 3 Este 8 Este 0 -- -- 77
2019-02-15 05:00:00 0.5 2 Nordeste 6 Nordeste 0 -- -- 75
2019-02-15 04:00:00 1.1 0 Calma 5 Nordeste 0 -- -- 71
2019-02-15 03:00:00 2.2 3 Nordeste 8 Noroeste 0 -- -- 66
2019-02-15 02:00:00 4.4 3 Sudeste 11 Sudeste 0 -- -- 57
2019-02-15 01:00:00 5.3 7 Sudeste 13 Este 0 -- -- 54
2019-02-15 00:00:00 3.8 3 Este 6 Sudeste 0 -- -- 60
2019-02-14 23:00:00 4.1 3 Nordeste 8 Nordeste 0 -- -- 60
2019-02-14 22:00:00 4.8 5 Este 8 Este 0 -- -- 60
2019-02-14 21:00:00 4.9 2 Nordeste 5 Noroeste 0 -- -- 75
2019-02-14 20:00:00 7.6 2 Norte 9 Nordeste 0 -- -- 66
2019-02-14 19:00:00 9.9 6 Nordeste 14 Nordeste 0 -- -- 61
2019-02-14 18:00:00 14.8 10 Norte 17 Sur 0 -- -- 45
2019-02-14 17:00:00 17.6 8 Sur 19 Sur 0 -- -- 20
2019-02-14 16:00:00 17.2 11 Sur 22 Sur 0 -- -- 20
2019-02-14 15:00:00 16.7 15 Sur 24 Sur 0 -- -- 20
2019-02-14 14:00:00 16.1 15 Sur 30 Sur 0 -- -- 22
2019-02-14 13:00:00 15.1 20 Sur 30 Sur 0 -- -- 23
2019-02-14 12:00:00 13.9 11 Sudeste 23 Sudeste 0 -- -- 30
2019-02-14 11:00:00 11.4 4 Sudeste 15 Sudeste 0 -- -- 36
2019-02-14 10:00:00 4 2 Norte 5 Sudoeste 0 -- -- 72
2019-02-14 09:00:00 0.3 3 Sudoeste 9 Oeste 0 -- -- 81
2019-02-14 08:00:00 1.8 4 Oeste 15 Sudeste 0 -- -- 70
2019-02-14 07:00:00 6.1 12 Sudeste 30 Sudeste 0 -- -- 52
2019-02-14 06:00:00 6.2 17 Sudeste 27 Sudeste 0 -- -- 56
2019-02-14 05:00:00 5.7 10 Sudeste 20 Sudeste 0 -- -- 63
2019-02-14 04:00:00 6.2 12 Sudeste 20 Sudeste 0 -- -- 64
2019-02-14 03:00:00 1.3 0 Calma 5 Este 0 -- -- 83
2019-02-14 02:00:00 1.6 3 Oeste 5 Oeste 0 -- -- 79
2019-02-14 01:00:00 2.8 3 Este 4 Nordeste 0 -- -- 75
2019-02-14 00:00:00 3.3 0 Calma 5 Sudoeste 0 -- -- 74
2019-02-13 23:00:00 3.2 0 Calma 6 Este 0 -- -- 74
2019-02-13 22:00:00 5.3 0 Calma 12 Este 0 -- -- 65
2019-02-13 21:00:00 7.2 6 Este 10 Nordeste 0 -- -- 58
2019-02-13 20:00:00 9.4 5 Nordeste 11 Nordeste 0 -- -- 52
2019-02-13 19:00:00 11.7 3 Noroeste 5 Noroeste 0 -- -- 43
2019-02-13 18:00:00 14.7 3 Noroeste 10 Sudoeste 0 -- -- 34
2019-02-13 17:00:00 14.9 5 Oeste 13 Sur 0 -- -- 33
2019-02-13 16:00:00 14.5 5 Sur 12 Sudoeste 0 -- -- 35
2019-02-13 15:00:00 13.3 5 Oeste 14 Sudoeste 0 -- -- 39
2019-02-13 14:00:00 12.3 5 Oeste 14 Noroeste 0 -- -- 43
2019-02-13 13:00:00 11.3 5 Sudoeste 13 Sudoeste 0 -- -- 49
2019-02-13 12:00:00 9.1 5 Sudoeste 9 Sudoeste 0 -- -- 57
2019-02-13 11:00:00 4.9 2 Sudoeste 5 Oeste 0 -- -- 75
2019-02-13 10:00:00 1.2 2 Oeste 5 Nordeste 0 -- -- 85
2019-02-13 09:00:00 -1.6 2 Este 6 Este 0 -- -- 87
2019-02-13 08:00:00 -2.3 0 Calma 4 Sur 0 -- -- 89
2019-02-13 07:00:00 -1.9 3 Este 5 Este 0 -- -- 88
2019-02-13 06:00:00 -1.8 3 Nordeste 5 Este 0 -- -- 88
2019-02-13 05:00:00 -1.6 4 Nordeste 5 Nordeste 0 -- -- 87
2019-02-13 04:00:00 -0.7 4 Este 5 Este 0 -- -- 87
2019-02-13 03:00:00 -0.4 0 Calma 3 Nordeste 0 -- -- 86
2019-02-13 02:00:00 0.3 0 Calma 4 Sudeste 0 -- -- 84
2019-02-13 01:00:00 0.6 0 Calma 5 Sudeste 0 -- -- 82
2019-02-13 00:00:00 1.8 7 Este 9 Este 0 -- -- 79
2019-02-12 23:00:00 2.7 2 Este 4 Nordeste 0 -- -- 75
2019-02-12 22:00:00 3.8 3 Sudeste 9 Nordeste 0 -- -- 72
2019-02-12 21:00:00 5.5 5 Este 10 Este 0 -- -- 64
2019-02-12 20:00:00 7.2 8 Nordeste 14 Nordeste 0 -- -- 56
2019-02-12 19:00:00 8.7 6 Norte 11 Norte 0 -- -- 56
2019-02-12 18:00:00 11.8 5 Noroeste 14 Noroeste 0 -- -- 50
2019-02-12 17:00:00 12 8 Norte 15 Noroeste 0 -- -- 45
2019-02-12 16:00:00 11.7 6 Norte 12 Nordeste 0 -- -- 42
2019-02-12 15:00:00 10.9 3 Oeste 8 Oeste 0 -- -- 48
2019-02-12 14:00:00 8.5 5 Noroeste 12 Noroeste 0 -- -- 57
2019-02-12 13:00:00 7.2 2 Noroeste 9 Noroeste 0 -- -- 63
2019-02-12 12:00:00 4.9 4 Noroeste 10 Noroeste 0 -- -- 71
2019-02-12 11:00:00 3.9 4 Sudoeste 8 Oeste 0 -- -- 78
2019-02-12 10:00:00 1.4 5 Este 9 Este 0 -- -- 86
2019-02-12 09:00:00 -2.3 2 Nordeste 8 Sudeste 0 -- -- 92
2019-02-12 08:00:00 -1.7 3 Este 8 Nordeste 0 -- -- 92
2019-02-12 07:00:00 -1.5 4 Nordeste 10 Este 0 -- -- 92
2019-02-12 06:00:00 -0.9 0 Calma 9 Nordeste 0 -- -- 90
2019-02-12 05:00:00 0 9 Nordeste 12 Nordeste 0 -- -- 88
2019-02-12 04:00:00 1 7 Nordeste 15 Nordeste 0 -- -- 86
2019-02-12 03:00:00 1.4 6 Nordeste 18 Este 0 -- -- 85
2019-02-12 02:00:00 2 10 Nordeste 24 Nordeste 0 -- -- 85
2019-02-12 01:00:00 2.5 13 Nordeste 30 Nordeste 0 -- -- 84
2019-02-12 00:00:00 3 15 Nordeste 29 Nordeste 0 -- -- 83
2019-02-11 23:00:00 2.3 13 Nordeste 26 Nordeste 0 -- -- 88
2019-02-11 22:00:00 2.7 15 Nordeste 30 Norte 0 -- -- 84
2019-02-11 21:00:00 3.4 10 Nordeste 29 Nordeste 0 -- -- 83
2019-02-11 20:00:00 4 11 Nordeste 21 Nordeste 0 -- -- 79
2019-02-11 19:00:00 5.1 11 Nordeste 29 Nordeste 0 -- -- 72
2019-02-11 18:00:00 7 18 Nordeste 31 Norte 0 -- -- 59
2019-02-11 17:00:00 7.8 18 Nordeste 31 Nordeste 0 -- -- 56
2019-02-11 16:00:00 7.9 17 Nordeste 33 Norte 0 -- -- 58
2019-02-11 15:00:00 7.8 19 Norte 34 Norte 0 -- -- 60
2019-02-11 14:00:00 6.8 20 Nordeste 34 Norte 0 -- -- 63
2019-02-11 13:00:00 6.4 19 Nordeste 40 Nordeste 0 -- -- 68
2019-02-11 12:00:00 4.9 21 Norte 32 Nordeste 0 -- -- 71
2019-02-11 11:00:00 4.2 16 Nordeste 32 Norte 0 -- -- 75
2019-02-11 10:00:00 2.5 5 Nordeste 9 Nordeste 0 -- -- 81
2019-02-11 09:00:00 -0.5 5 Este 7 Este 0 -- -- 89
2019-02-11 08:00:00 -0.3 3 Norte 12 Nordeste 0 -- -- 86
2019-02-11 07:00:00 0.9 8 Nordeste 18 Norte 0 -- -- 82
2019-02-11 06:00:00 1.3 12 Nordeste 20 Nordeste 0 -- -- 81
2019-02-11 05:00:00 1.4 11 Nordeste 26 Nordeste 0 -- -- 82
2019-02-11 04:00:00 1.5 12 Nordeste 24 Nordeste 0 -- -- 84
2019-02-11 03:00:00 2.8 15 Nordeste 27 Nordeste 0 -- -- 81
2019-02-11 02:00:00 3 17 Nordeste 29 Nordeste 0 -- -- 85
2019-02-11 01:00:00 2.9 17 Nordeste 35 Norte 0 -- -- 87
2019-02-11 00:00:00 3.4 20 Nordeste 36 Norte 0 -- -- 89
2019-02-10 23:00:00 3.5 15 Nordeste 30 Norte 0 -- -- 89
2019-02-10 22:00:00 4.3 17 Nordeste 30 Nordeste 0 -- -- 90
2019-02-10 21:00:00 5.1 16 Norte 25 Nordeste 0 -- -- 91
2019-02-10 20:00:00 6.6 16 Norte 25 Norte 0 -- -- 87
2019-02-10 19:00:00 9.3 9 Oeste 22 Oeste 0 -- -- 85
2019-02-10 18:00:00 10 8 Oeste 23 Sudoeste 0 -- -- 86
2019-02-10 17:00:00 10.3 13 Sudoeste 32 Sudoeste 0 -- -- 89
2019-02-10 16:00:00 9.1 17 Sudoeste 38 Sudoeste 0 -- -- 95
2019-02-10 15:00:00 8.8 18 Sudoeste 41 Sudoeste 0 -- -- 92
2019-02-10 14:00:00 8.3 16 Sudoeste 40 Oeste 0 -- -- 92
2019-02-10 13:00:00 8.4 28 Sudoeste 53 Sudoeste 0 -- -- 85
2019-02-10 12:00:00 8.6 33 Sudoeste 51 Sudoeste 0 -- -- 81
2019-02-10 11:00:00 7.6 33 Sudoeste 53 Sudoeste 0 -- -- 85
2019-02-10 10:00:00 7 26 Sudoeste 44 Sudoeste 0 -- -- 86
2019-02-10 09:00:00 6.3 27 Sudoeste 42 Sudoeste 0 -- -- 87
2019-02-10 08:00:00 5.3 23 Sudoeste 41 Sudoeste 0 -- -- 88
2019-02-10 07:00:00 5.2 26 Sur 44 Sur 0 -- -- 85
2019-02-10 06:00:00 5.3 23 Sudoeste 41 Sudoeste 0 -- -- 84
2019-02-10 05:00:00 5 22 Sudoeste 40 Sur 0 -- -- 84
2019-02-10 04:00:00 4.9 23 Sudoeste 35 Sur 0 -- -- 85
2019-02-10 03:00:00 4.8 23 Sur 38 Sur 0 -- -- 87
2019-02-10 02:00:00 5.3 25 Sudoeste 37 Sudoeste 0 -- -- 85
2019-02-10 01:00:00 4.5 17 Sur 26 Sur 0 -- -- 87
2019-02-10 00:00:00 5.1 17 Sudoeste 24 Sudoeste 0 -- -- 81
2019-02-09 23:00:00 5.2 16 Sur 23 Sudoeste 0 -- -- 82
2019-02-09 22:00:00 5.5 11 Sur 16 Sur 0 -- -- 80
2019-02-09 21:00:00 6.3 14 Sur 22 Sur 0 -- -- 75
2019-02-09 20:00:00 6.8 14 Sudoeste 19 Sudoeste 0 -- -- 72
2019-02-09 19:00:00 7.9 13 Sudoeste 23 Sudoeste 0 -- -- 68
2019-02-09 18:00:00 10.1 13 Sudoeste 27 Sur 0 -- -- 61
2019-02-09 17:00:00 10.1 15 Sudoeste 28 Sur 0 -- -- 62
2019-02-09 16:00:00 9.8 15 Sudoeste 28 Sudoeste 0 -- -- 63
2019-02-09 15:00:00 10 17 Sudoeste 28 Sur 0 -- -- 61
2019-02-09 14:00:00 8.5 15 Sudoeste 28 Sur 0 -- -- 67
2019-02-09 13:00:00 7.6 17 Sur 25 Sudoeste 0 -- -- 70
2019-02-09 12:00:00 6.6 13 Sudoeste 24 Sudoeste 0 -- -- 79
2019-02-09 11:00:00 5.7 12 Sur 21 Sur 0 -- -- 88
2019-02-09 10:00:00 4.8 13 Sur 18 Sudoeste 0 -- -- 91
2019-02-09 09:00:00 4.2 4 Sudoeste 10 Sur 0 -- -- 92
2019-02-09 08:00:00 4.2 6 Sur 15 Sur 0 -- -- 92
2019-02-09 07:00:00 4.3 9 Sur 18 Sur 0 -- -- 91
2019-02-09 06:00:00 4.3 10 Sur 20 Sur 0 -- -- 91
2019-02-09 05:00:00 4.3 9 Sur 20 Sur 0 -- -- 91
2019-02-09 04:00:00 4.3 11 Sur 17 Sur 0 -- -- 90
2019-02-09 03:00:00 4.3 10 Sur 21 Sur 0 -- -- 90
2019-02-09 02:00:00 3.9 15 Sur 24 Sur 0 -- -- 91
2019-02-09 01:00:00 3.4 14 Sur 21 Sur 0 -- -- 92
2019-02-09 00:00:00 3.1 14 Sur 18 Sur 0 -- -- 90
2019-02-08 23:00:00 3.4 11 Sur 17 Sur 0 -- -- 88
2019-02-08 22:00:00 4.5 10 Sudoeste 13 Sudoeste 0 -- -- 85
2019-02-08 21:00:00 5.4 6 Sudoeste 24 Sudoeste 0 -- -- 80
2019-02-08 20:00:00 6.4 11 Sudoeste 16 Sudoeste 0 -- -- 74
2019-02-08 19:00:00 7.6 7 Sudoeste 18 Sudoeste 0 -- -- 65
2019-02-08 18:00:00 9.4 16 Sudoeste 26 Sudoeste 0 -- -- 59
2019-02-08 17:00:00 11.2 15 Sudoeste 31 Sudoeste 0 -- -- 56
2019-02-08 16:00:00 11.4 15 Sudoeste 32 Sudoeste 0 -- -- 57
2019-02-08 15:00:00 10.7 14 Sudoeste 28 Sudoeste 0 -- -- 64
2019-02-08 14:00:00 9.9 13 Sudoeste 34 Sudoeste 0 -- -- 67
2019-02-08 13:00:00 9 20 Sur 29 Sudoeste 0 -- -- 71
2019-02-08 12:00:00 7.5 15 Sur 22 Sur 0 -- -- 78
2019-02-08 11:00:00 5.8 14 Sur 22 Sur 0 -- -- 83
2019-02-08 10:00:00 4.1 15 Sur 22 Sur 0 -- -- 87
2019-02-08 09:00:00 1.9 14 Sur 18 Sudeste 0 -- -- 93
2019-02-08 08:00:00 1.4 4 Sudeste 18 Sur 0 -- -- 91
2019-02-08 07:00:00 1.9 12 Sur 18 Sur 0 -- -- 90
2019-02-08 06:00:00 1.8 9 Sur 14 Sur 0 -- -- 89
2019-02-08 05:00:00 2.5 10 Sur 14 Sur 0 -- -- 89
2019-02-08 04:00:00 1.4 3 Sudeste 10 Sur 0 -- -- 89
2019-02-08 03:00:00 2.3 6 Sudeste 12 Sudeste 0 -- -- 88
2019-02-08 02:00:00 2.1 5 Sudeste 10 Sur 0 -- -- 88
2019-02-08 01:00:00 2.4 6 Sur 11 Sur 0 -- -- 88
2019-02-08 00:00:00 3.4 3 Sudeste 6 Sudeste 0 -- -- 84
2019-02-07 23:00:00 3.5 0 Calma 8 Sur 0 -- -- 82
2019-02-07 22:00:00 3.8 0 Calma 6 Sur 0 -- -- 80
2019-02-07 21:00:00 5.3 0 Calma 8 Sur 0 -- -- 76
2019-02-07 20:00:00 6.7 4 Sudoeste 7 Sudoeste 0 -- -- 70
2019-02-07 19:00:00 8 4 Sudoeste 10 Oeste 0 -- -- 67
2019-02-07 18:00:00 10.7 6 Oeste 14 Sudoeste 0 -- -- 58
2019-02-07 17:00:00 11 4 Noroeste 14 Oeste 0 -- -- 56
2019-02-07 16:00:00 11.1 9 Norte 22 Noroeste 0 -- -- 58
2019-02-07 15:00:00 10.8 6 Oeste 20 Noroeste 0 -- -- 62
2019-02-07 14:00:00 9.6 7 Oeste 16 Oeste 0 -- -- 65
2019-02-07 13:00:00 8.7 6 Oeste 16 Sudoeste 0 -- -- 69
2019-02-07 12:00:00 7 7 Sudoeste 14 Sudoeste 0 -- -- 74
2019-02-07 11:00:00 5.2 8 Sur 18 Sur 0 -- -- 76
2019-02-07 10:00:00 3.4 12 Sur 19 Sur 0 -- -- 80
2019-02-07 09:00:00 1.6 10 Sur 25 Sur 0 -- -- 84
2019-02-07 08:00:00 1.6 15 Sur 20 Sudeste 0 -- -- 85
2019-02-07 07:00:00 1.8 13 Sur 19 Sur 0 -- -- 85
2019-02-07 06:00:00 2.3 10 Sur 14 Sudeste 0 -- -- 82
2019-02-07 05:00:00 2.9 5 Sur 17 Sur 0 -- -- 81
2019-02-07 04:00:00 3.7 13 Sur 22 Sur 0 -- -- 78
2019-02-07 03:00:00 4.4 15 Sur 19 Sur 0 -- -- 77
2019-02-07 02:00:00 4.9 15 Sur 20 Sudeste 0 -- -- 77
2019-02-07 01:00:00 5.1 8 Sur 14 Sur 0 -- -- 78
2019-02-07 00:00:00 5.4 10 Sur 15 Sur 0 -- -- 82
2019-02-06 23:00:00 5.7 8 Sur 16 Sur 0 -- -- 81
2019-02-06 22:00:00 6 3 Sudeste 9 Sudeste 0 -- -- 79
2019-02-06 21:00:00 7 4 Sur 16 Sur 0 -- -- 76
2019-02-06 20:00:00 7.8 12 Sur 18 Sudoeste 0 -- -- 75
2019-02-06 19:00:00 9 10 Sudoeste 14 Sur 0 -- -- 72
2019-02-06 18:00:00 11.6 9 Sudoeste 21 Sudoeste 0 -- -- 63
2019-02-06 17:00:00 13.2 11 Sudoeste 23 Sudoeste 0 -- -- 56
2019-02-06 16:00:00 13.2 9 Sudoeste 19 Sudoeste 0 -- -- 58
2019-02-06 15:00:00 12.5 5 Oeste 15 Oeste 0 -- -- 66
2019-02-06 14:00:00 11.5 5 Oeste 12 Oeste 0 -- -- 69
2019-02-06 13:00:00 10.2 5 Oeste 11 Sudoeste 0 -- -- 72
2019-02-06 12:00:00 8.5 5 Sudoeste 9 Sudoeste 0 -- -- 78
2019-02-06 11:00:00 5.9 4 Sudoeste 7 Sudoeste 0 -- -- 89
2019-02-06 10:00:00 1.9 0 Calma 2 Este 0 -- -- 96
2019-02-06 09:00:00 -0.9 0 Calma 2 Nordeste 0 -- -- 95
2019-02-06 08:00:00 -0.7 0 Calma -- -- 0 -- -- 95
2019-02-06 07:00:00 -0.4 0 Calma -- -- 0 -- -- 94
2019-02-06 06:00:00 0.2 0 Calma 4 Este 0 -- -- 93
2019-02-06 05:00:00 0.7 5 Este 6 Este 0 -- -- 95
2019-02-06 04:00:00 0.3 0 Calma 4 Este 0 -- -- 93
2019-02-06 03:00:00 0.5 0 Calma 4 Este 0 -- -- 92
2019-02-06 02:00:00 1.2 3 Este 5 Este 0 -- -- 92
2019-02-06 01:00:00 1.1 0 Calma 2 Norte 0 -- -- 91
2019-02-06 00:00:00 1.6 0 Calma 4 Este 0 -- -- 89
2019-02-05 23:00:00 2.5 0 Calma 4 Este 0 -- -- 88
2019-02-05 22:00:00 3.3 0 Calma 3 Sudoeste 0 -- -- 87
2019-02-05 21:00:00 4.7 0 Calma 5 Este 0 -- -- 82
2019-02-05 20:00:00 7 0 Calma 6 Este 0 -- -- 75
2019-02-05 19:00:00 9.1 5 Este 6 Este 0 -- -- 69
2019-02-05 18:00:00 12.1 4 Norte 6 Norte 0 -- -- 61
2019-02-05 17:00:00 12.1 2 Noroeste 8 Norte 0 -- -- 62
2019-02-05 16:00:00 11.1 4 Noroeste 11 Noroeste 0 -- -- 64
2019-02-05 15:00:00 10.4 6 Noroeste 12 Noroeste 0 -- -- 64
2019-02-05 14:00:00 9.9 4 Oeste 10 Noroeste 0 -- -- 65
2019-02-05 13:00:00 8.6 4 Oeste 10 Oeste 0 -- -- 60
2019-02-05 12:00:00 8 3 Sudoeste 8 Oeste 0 -- -- 57
2019-02-05 11:00:00 5.7 5 Sur 9 Sur 0 -- -- 63
2019-02-05 10:00:00 2.8 3 Sur 7 Sur 0 -- -- 82
2019-02-05 09:00:00 -0.6 0 Calma 5 Sudeste 0 -- -- 87
2019-02-05 08:00:00 -0.3 2 Sudeste 7 Sudeste 0 -- -- 85
2019-02-05 07:00:00 0.3 3 Sudeste 6 Sudeste 0 -- -- 82
2019-02-05 06:00:00 0.9 0 Calma 6 Este 0 -- -- 81
2019-02-05 05:00:00 1.5 0 Calma 5 Sudeste 0 -- -- 83
2019-02-05 04:00:00 1.9 0 Calma 4 Este 0 -- -- 82
2019-02-05 03:00:00 2 0 Calma 9 Este 0 -- -- 82
2019-02-05 02:00:00 1.8 4 Este 10 Sudeste 0 -- -- 81
2019-02-05 01:00:00 0.9 2 Este 8 Sur 0 -- -- 82
2019-02-05 00:00:00 0.8 4 Este 13 Sur 0 -- -- 83
2019-02-04 23:00:00 1.4 3 Sudeste 6 Sudeste 0 -- -- 79
2019-02-04 22:00:00 1.9 4 Este 6 Nordeste 0 -- -- 78
2019-02-04 21:00:00 2.3 0 Calma 4 Sudoeste 0 -- -- 78
2019-02-04 20:00:00 3.4 0 Calma 5 Norte 0 -- -- 74
2019-02-04 19:00:00 4.5 0 Calma 4 Oeste 0 -- -- 68
2019-02-04 18:00:00 6.4 0 Calma 10 Oeste 0 -- -- 59
2019-02-04 17:00:00 6.9 5 Oeste 12 Oeste 0 -- -- 54
2019-02-04 16:00:00 6.9 5 Oeste 15 Oeste 0 -- -- 57
2019-02-04 15:00:00 6.2 6 Sudoeste 15 Oeste 0 -- -- 62
2019-02-04 14:00:00 4.2 6 Sudoeste 15 Sudoeste 0 -- -- 67
2019-02-04 13:00:00 3.7 7 Sudoeste 14 Sudoeste 0 -- -- 71
2019-02-04 12:00:00 2.2 4 Sudoeste 10 Sur 0 -- -- 81
2019-02-04 11:00:00 0.1 6 Sur 12 Sur 0 -- -- 86
2019-02-04 10:00:00 -1.6 7 Sur 10 Sur 0 -- -- 94
2019-02-04 09:00:00 -3.7 3 Sudeste 10 Sur 0 -- -- 95
2019-02-04 08:00:00 -4.1 0 Calma 8 Sudeste 0 -- -- 95
2019-02-04 07:00:00 -3.8 3 Sudeste 9 Sudeste 0 -- -- 96
2019-02-04 06:00:00 -3.9 3 Sudeste 9 Sudeste 0 -- -- 96
2019-02-04 05:00:00 -3.7 2 Sur 6 Sudeste 0 -- -- 96
2019-02-04 04:00:00 -3.5 0 Calma 6 Sur 0 -- -- 95
2019-02-04 03:00:00 -3.2 0 Calma 8 Sudeste 0 -- -- 95
2019-02-04 02:00:00 -2.9 3 Oeste 6 Sudoeste 0 -- -- 95
2019-02-04 01:00:00 -2.5 4 Noroeste 9 Oeste 0 -- -- 94
2019-02-04 00:00:00 -2 3 Norte 6 Oeste 0 -- -- 93
2019-02-03 23:00:00 -1.2 6 Este 15 Nordeste 0 -- -- 91
2019-02-03 22:00:00 -0.7 10 Nordeste 17 Nordeste 0 -- -- 91
2019-02-03 21:00:00 -0.5 10 Norte 17 Nordeste 0 -- -- 91
2019-02-03 20:00:00 -0.3 8 Norte 14 Norte 0 -- -- 88
2019-02-03 19:00:00 0.6 9 Norte 24 Norte 0 -- -- 84
2019-02-03 18:00:00 2.1 15 Norte 37 Norte 0 -- -- 76
2019-02-03 17:00:00 2.2 17 Norte 48 Nordeste 0 -- -- 73
2019-02-03 16:00:00 2.9 27 Norte 44 Norte 0 -- -- 73
2019-02-03 15:00:00 2.9 26 Norte 40 Norte 0 -- -- 71
2019-02-03 14:00:00 2.3 23 Norte 38 Norte 0 -- -- 78
2019-02-03 13:00:00 2.4 20 Norte 33 Norte 0 -- -- 79
2019-02-03 12:00:00 1.4 19 Norte 32 Norte 0 -- -- 83
2019-02-03 11:00:00 0.5 18 Norte 29 Norte 0 -- -- 86
2019-02-03 10:00:00 -1.4 15 Norte 24 Norte 0 -- -- 89
2019-02-03 09:00:00 -3 8 Norte 15 Norte 0 -- -- 93
2019-02-03 08:00:00 -2 12 Norte 22 Noroeste 0 -- -- 96
2019-02-03 07:00:00 -3.5 8 Norte 18 Noroeste 0 -- -- 95
2019-02-03 06:00:00 -2 13 Norte 24 Norte 0 -- -- 96
2019-02-03 05:00:00 -2.1 6 Noroeste 13 Noroeste 0 -- -- 96
2019-02-03 04:00:00 -2.1 8 Noroeste 22 Noroeste 0.2 -- -- 96
2019-02-03 03:00:00 -1.4 10 Norte 18 Noroeste 0.6 -- -- 95
2019-02-03 02:00:00 -1.3 12 Norte 25 Norte 0 -- -- 95
2019-02-03 01:00:00 -1.4 11 Norte 26 Noroeste 0.2 -- -- 93
2019-02-03 00:00:00 -0.6 11 Noroeste 28 Noroeste 0 -- -- 90
2019-02-02 23:00:00 -0.8 17 Norte 33 Norte 0 -- -- 90
2019-02-02 22:00:00 -0.2 19 Norte 40 Noroeste 0 -- -- 83
2019-02-02 21:00:00 -0.1 15 Norte 27 Norte 0 -- -- 82
2019-02-02 20:00:00 0.2 14 Norte 22 Noroeste 0 -- -- 80
2019-02-02 19:00:00 -0.4 10 Norte 33 Norte 0 -- -- 84
2019-02-02 18:00:00 0.9 13 Norte 35 Norte 0 -- -- 80
2019-02-02 17:00:00 0.9 20 Norte 32 Nordeste 0 -- -- 81
2019-02-02 16:00:00 1 22 Norte 42 Norte 0 -- -- 81
2019-02-02 15:00:00 2 24 Norte 37 Norte 0 -- -- 78
2019-02-02 14:00:00 -0.8 23 Norte 47 Norte 0 -- -- 92
2019-02-02 13:00:00 1.6 22 Norte 48 Norte 0 -- -- 85
2019-02-02 12:00:00 -0.3 23 Norte 37 Norte 0.4 -- -- 94
2019-02-02 11:00:00 -0.2 15 Noroeste 32 Norte 0.2 -- -- 94
2019-02-02 10:00:00 -0.1 13 Noroeste 34 Norte 0 -- -- 89
2019-02-02 09:00:00 0.3 13 Norte 23 Oeste 0 -- -- 85
2019-02-02 08:00:00 0 7 Noroeste 26 Noroeste 0 -- -- 90
2019-02-02 07:00:00 -0.1 7 Oeste 27 Oeste 0 -- -- 91
2019-02-02 06:00:00 0 9 Oeste 29 Oeste 0 -- -- 92
2019-02-02 05:00:00 0.1 16 Oeste 29 Oeste 0 -- -- 92
2019-02-02 04:00:00 0 17 Oeste 30 Oeste 0 -- -- 92
2019-02-02 03:00:00 -0.2 13 Oeste 29 Oeste 0 -- -- 91
2019-02-02 02:00:00 0.8 16 Oeste 33 Noroeste 0 -- -- 88
2019-02-02 01:00:00 1.1 17 Oeste 43 Oeste 0.2 -- -- 91
2019-02-02 00:00:00 1.2 23 Noroeste 51 Oeste 0 -- -- 91
2019-02-01 23:00:00 1 21 Oeste 41 Sudoeste 0.4 -- -- 95
2019-02-01 22:00:00 1.5 21 Oeste 44 Oeste 0 -- -- 92
2019-02-01 21:00:00 1.4 16 Oeste 41 Sudoeste 0.2 -- -- 94
2019-02-01 20:00:00 1.1 15 Sudoeste 39 Oeste 0 -- -- 94
2019-02-01 19:00:00 0.8 19 Oeste 43 Sudoeste 0.2 -- -- 94
2019-02-01 18:00:00 3.1 13 Oeste 41 Oeste 0.2 -- -- 81
2019-02-01 17:00:00 3.1 16 Oeste 46 Oeste 0 -- -- 83
2019-02-01 16:00:00 4.4 27 Sudoeste 61 Sudoeste 0 -- -- 78
2019-02-01 15:00:00 4.8 34 Sudoeste 77 Sudoeste 0 -- -- 79
2019-02-01 14:00:00 4.4 48 Sudoeste 78 Sudoeste 0.2 -- -- 83
2019-02-01 13:00:00 4.7 38 Sudoeste 62 Sudoeste 0 -- -- 79
2019-02-01 12:00:00 4.2 38 Sudoeste 64 Sudoeste 0 -- -- 82
2019-02-01 11:00:00 3.8 43 Sudoeste 63 Sudoeste 0 -- -- 81
2019-02-01 10:00:00 3.3 32 Sudoeste 46 Sudoeste 0 -- -- 83
2019-02-01 09:00:00 3.1 25 Sudoeste 49 Sudoeste 0 -- -- 84
2019-02-01 08:00:00 3 22 Sudoeste 41 Sudoeste 0 -- -- 82
2019-02-01 07:00:00 3.6 21 Sudoeste 55 Sudoeste 0 -- -- 89
2019-02-01 06:00:00 4.2 31 Sudoeste 48 Sudoeste 0.2 -- -- 87
2019-02-01 05:00:00 4.1 17 Sudoeste 32 Sudoeste 0 -- -- 93
2019-02-01 04:00:00 4.7 22 Sudoeste 36 Sudoeste 0 -- -- 88
2019-02-01 03:00:00 4.7 22 Sudoeste 39 Sudoeste 0 -- -- 85
2019-02-01 02:00:00 6.1 26 Sudoeste 39 Sudoeste 0 -- -- 87
2019-02-01 01:00:00 6.5 23 Sudoeste 60 Sudoeste 0 -- -- 83
2019-02-01 00:00:00 7.8 31 Sudoeste 53 Sudoeste 0.2 -- -- 81
2019-01-31 23:00:00 7.7 33 Sudoeste 48 Sudoeste 2 -- -- 94
2019-01-31 22:00:00 7.7 31 Sudoeste 46 Sudoeste 1.2 -- -- 95
2019-01-31 21:00:00 8.2 28 Sudoeste 56 Sudoeste 0 -- -- 94
2019-01-31 20:00:00 8.7 37 Sudoeste 57 Sudoeste 0.2 -- -- 91
2019-01-31 19:00:00 8.6 33 Sudoeste 61 Sudoeste 0.2 -- -- 95
2019-01-31 18:00:00 9 34 Sudoeste 56 Sudoeste 0.2 -- -- 94
2019-01-31 17:00:00 9 35 Sudoeste 64 Sudoeste 0.2 -- -- 94
2019-01-31 16:00:00 9.6 38 Sudoeste 60 Sudoeste 0 -- -- 91
2019-01-31 15:00:00 9.9 37 Sudoeste 63 Sudoeste 0 -- -- 89
2019-01-31 14:00:00 9.9 27 Sudoeste 55 Sudoeste 0 -- -- 90
2019-01-31 13:00:00 9.4 30 Sudoeste 57 Sudoeste 0 -- -- 90
2019-01-31 12:00:00 8.5 32 Sudoeste 52 Sudoeste 0 -- -- 92
2019-01-31 11:00:00 7.9 30 Sudoeste 46 Sudoeste 0 -- -- 91
2019-01-31 10:00:00 7.4 30 Sudoeste 51 Sudoeste 0 -- -- 92
2019-01-31 09:00:00 7.1 28 Sudoeste 46 Sudoeste 0 -- -- 93
2019-01-31 08:00:00 7.9 27 Sudoeste 50 Sudoeste 0.2 -- -- 92
2019-01-31 07:00:00 8.1 25 Sudoeste 49 Sudoeste 0 -- -- 92
2019-01-31 06:00:00 8.2 23 Sudoeste 51 Sudoeste 0 -- -- 93
2019-01-31 05:00:00 7.9 23 Sudoeste 47 Sudoeste 0.2 -- -- 95
2019-01-31 04:00:00 7.7 24 Sudoeste 45 Sudoeste 0 -- -- 95
2019-01-31 03:00:00 7.3 22 Sudoeste 41 Sudoeste 0 -- -- 96
2019-01-31 02:00:00 6.7 17 Sudoeste 33 Sudoeste 0.6 -- -- 97
2019-01-31 01:00:00 6.1 17 Sudoeste 31 Sudoeste 1.2 -- -- 98
2019-01-31 00:00:00 5.5 17 Sudoeste 35 Sudoeste 0.8 -- -- 97
2019-01-30 23:00:00 5.1 21 Sudoeste 38 Sudoeste 0.2 -- -- 97
2019-01-30 22:00:00 3.2 23 Sur 37 Sur 1.2 -- -- 97
2019-01-30 21:00:00 2.5 23 Sur 30 Sur 1.2 -- -- 96
2019-01-30 20:00:00 2.1 18 Sur 31 Sur 1.6 -- -- 95
2019-01-30 19:00:00 2.1 22 Sur 33 Sudoeste 1.2 -- -- 93
2019-01-30 18:00:00 2.6 17 Sudoeste 35 Sudoeste 0.4 -- -- 91
2019-01-30 17:00:00 3.9 20 Sudoeste 39 Sudoeste 0 -- -- 83
2019-01-30 16:00:00 5.5 17 Sudoeste 40 Sudoeste 0 -- -- 65
2019-01-30 15:00:00 6.1 21 Sudoeste 40 Sudoeste 0 -- -- 58
2019-01-30 14:00:00 5.8 18 Sudoeste 31 Sudoeste 0 -- -- 57
2019-01-30 13:00:00 4.6 16 Oeste 33 Oeste 0 -- -- 64
2019-01-30 12:00:00 3.3 18 Oeste 33 Oeste 0 -- -- 72
2019-01-30 11:00:00 2.3 17 Oeste 31 Oeste 0 -- -- 75
2019-01-30 10:00:00 0.8 8 Oeste 18 Oeste 0 -- -- 84
2019-01-30 09:00:00 -0.3 10 Sudoeste 17 Sudoeste 0 -- -- 86
2019-01-30 08:00:00 -0.3 8 Sudoeste 19 Oeste 0 -- -- 87
2019-01-30 07:00:00 0.3 13 Oeste 24 Oeste 0 -- -- 84
2019-01-30 06:00:00 0.5 9 Oeste 21 Oeste 0 -- -- 86
2019-01-30 05:00:00 0.4 6 Sudoeste 18 Oeste 0 -- -- 86
2019-01-30 04:00:00 0.8 7 Oeste 23 Oeste 0 -- -- 86
2019-01-30 03:00:00 0.9 8 Oeste 25 Oeste 0 -- -- 89
2019-01-30 02:00:00 1.2 11 Oeste 24 Sudoeste 0 -- -- 88
2019-01-30 01:00:00 1.3 9 Sudoeste 21 Oeste 0 -- -- 88
2019-01-30 00:00:00 1.2 12 Oeste 23 Oeste 0 -- -- 89
2019-01-29 23:00:00 1.4 11 Oeste 28 Oeste 0 -- -- 89
2019-01-29 22:00:00 2.1 12 Oeste 24 Oeste 0 -- -- 85
2019-01-29 21:00:00 2.4 8 Oeste 18 Noroeste 0 -- -- 82
2019-01-29 20:00:00 3.2 7 Oeste 19 Oeste -- -- -- 81
2019-01-29 19:00:00 4.6 9 Noroeste 23 Noroeste 0 -- -- 79
2019-01-29 18:00:00 5.6 10 Noroeste 40 Oeste 1.2 -- -- 89
2019-01-29 17:00:00 8.3 26 Oeste 57 Oeste 0 -- -- 76
2019-01-29 16:00:00 8.2 28 Oeste 55 Oeste 0 -- -- 77
2019-01-29 15:00:00 6.8 22 Sudoeste 46 Sudoeste 0 -- -- 85
2019-01-29 14:00:00 6.3 22 Sudoeste 43 Sudoeste 0 -- -- 86
2019-01-29 13:00:00 5.2 20 Sudoeste 44 Sudoeste 0 -- -- 92
2019-01-29 12:00:00 3 24 Sudoeste 33 Sudoeste 0 -- -- 96
2019-01-29 11:00:00 2.2 17 Sudoeste 28 Sudoeste 0 -- -- 96
2019-01-29 10:00:00 1.2 16 Sudoeste 26 Sur 0 -- -- 95
2019-01-29 09:00:00 0.3 16 Sur 29 Sudoeste 0 -- -- 93
2019-01-29 08:00:00 0.3 14 Sur 22 Sur 0 -- -- 93
2019-01-29 07:00:00 0.2 13 Sur 19 Sur 0 -- -- 92
2019-01-29 06:00:00 -0.7 11 Sur 17 Sur 0 -- -- 92
2019-01-29 05:00:00 -1.1 6 Sur 15 Sudoeste 0 -- -- 91
2019-01-29 04:00:00 -1.2 9 Sur 14 Sur 0 -- -- 90
2019-01-29 03:00:00 -0.8 6 Sur 11 Sur 0 -- -- 90
2019-01-29 02:00:00 -0.6 7 Sudeste 10 Sudeste 0 -- -- 91
2019-01-29 01:00:00 -0.8 2 Este 6 Este 0 -- -- 91
2019-01-29 00:00:00 -0.2 3 Sudoeste 6 Norte 0 -- -- 89
2019-01-28 23:00:00 0.7 4 Nordeste 9 Nordeste 0 -- -- 87
2019-01-28 22:00:00 0.8 5 Norte 14 Norte 0 -- -- 86
2019-01-28 21:00:00 1.9 8 Norte 13 Norte 0 -- -- 82
2019-01-28 20:00:00 2.9 5 Norte 17 Norte 0 -- -- 80
2019-01-28 19:00:00 4.2 13 Norte 24 Norte 0 -- -- 79
2019-01-28 18:00:00 6.2 14 Norte 21 Norte 0 -- -- 71
2019-01-28 17:00:00 7.6 15 Norte 26 Norte 0 -- -- 70
2019-01-28 16:00:00 8.2 18 Norte 32 Norte 0 -- -- 67
2019-01-28 15:00:00 6.9 14 Nordeste 27 Nordeste 0 -- -- 75
2019-01-28 14:00:00 8.1 10 Noroeste 33 Noroeste 0 -- -- 70
2019-01-28 13:00:00 7.5 11 Oeste 32 Oeste 0 -- -- 75
2019-01-28 12:00:00 7 13 Oeste 30 Oeste 0 -- -- 79
2019-01-28 11:00:00 3.4 10 Sudoeste 26 Oeste 0 -- -- 91
2019-01-28 10:00:00 1.8 13 Sudoeste 22 Sudoeste 0 -- -- 92
2019-01-28 09:00:00 1.1 12 Sudoeste 20 Sudoeste 0 -- -- 92
2019-01-28 08:00:00 0.3 13 Sudoeste 26 Sudoeste 0 -- -- 92
2019-01-28 07:00:00 0.2 18 Sudoeste 26 Sudoeste 0 -- -- 90
2019-01-28 06:00:00 0.3 17 Sudoeste 26 Sudoeste 0 -- -- 88
2019-01-28 05:00:00 -0.1 12 Sudoeste 23 Sudoeste 0 -- -- 90
2019-01-28 04:00:00 -1.2 11 Sur 14 Sur 0 -- -- 90
2019-01-28 03:00:00 -1.3 6 Sudoeste 13 Sudoeste 0 -- -- 90
2019-01-28 02:00:00 -0.8 8 Sudoeste 15 Oeste 0 -- -- 89
2019-01-28 01:00:00 -0.6 3 Sudoeste 9 Oeste 0 -- -- 84
2019-01-28 00:00:00 -0.7 3 Sudoeste 8 Oeste 0 -- -- 84
2019-01-27 23:00:00 -0.5 3 Noroeste 8 Sur 0 -- -- 85
2019-01-27 22:00:00 -0.3 3 Nordeste 10 Sur 0 -- -- 85
2019-01-27 21:00:00 0.8 3 Sur 9 Norte 0 -- -- 81
2019-01-27 20:00:00 1.9 3 Nordeste 10 Nordeste 0 -- -- 76
2019-01-27 19:00:00 2.8 6 Norte 22 Nordeste 0 -- -- 75
2019-01-27 18:00:00 4.6 14 Norte 31 Norte 0 -- -- 71
2019-01-27 17:00:00 5.4 13 Norte 27 Norte 0 -- -- 70
2019-01-27 16:00:00 6.7 13 Nordeste 42 Noroeste 0 -- -- 64
2019-01-27 15:00:00 8.1 13 Noroeste 34 Oeste 0 -- -- 52
2019-01-27 14:00:00 7.1 13 Noroeste 35 Noroeste 0 -- -- 62
2019-01-27 13:00:00 6.6 15 Noroeste 36 Noroeste 0 -- -- 69
2019-01-27 12:00:00 5.9 14 Noroeste 29 Noroeste 0 -- -- 70
2019-01-27 11:00:00 4.1 8 Oeste 19 Oeste 0 -- -- 83
2019-01-27 10:00:00 2.3 6 Oeste 12 Sudoeste 0 -- -- 93
2019-01-27 09:00:00 1.8 6 Noroeste 20 Noroeste 0 -- -- 93
2019-01-27 08:00:00 1.8 6 Noroeste 16 Noroeste 0 -- -- 93
2019-01-27 07:00:00 1 7 Sudoeste 21 Sudoeste 0 -- -- 92
2019-01-27 06:00:00 1.2 11 Sudoeste 18 Sudoeste 0 -- -- 93
2019-01-27 05:00:00 1.4 12 Sur 19 Sur 0 -- -- 92
2019-01-27 04:00:00 1.5 7 Sur 23 Sudoeste 0 -- -- 92
2019-01-27 03:00:00 1.6 13 Sur 22 Sudoeste 0 -- -- 93
2019-01-27 02:00:00 2 11 Sur 23 Sur 0 -- -- 91
2019-01-27 01:00:00 3.2 15 Sur 26 Sur 0 -- -- 88
2019-01-27 00:00:00 3.3 17 Sur 24 Sur 0 -- -- 87
2019-01-26 23:00:00 3.5 13 Sur 17 Sur 0 -- -- 87
2019-01-26 22:00:00 3.5 13 Sur 18 Sur 0 -- -- 88
2019-01-26 21:00:00 4 6 Sur 15 Sur 0 -- -- 85
2019-01-26 20:00:00 5 9 Sur 11 Sur 0 -- -- 82
2019-01-26 19:00:00 6.3 4 Sudoeste 9 Sudoeste 0 -- -- 78
2019-01-26 18:00:00 8.7 5 Sudoeste 20 Sudoeste 0 -- -- 72
2019-01-26 17:00:00 9.9 8 Sudoeste 17 Sudoeste 0 -- -- 67
2019-01-26 16:00:00 9.6 8 Sudoeste 15 Sudoeste 0 -- -- 69
2019-01-26 15:00:00 8.8 6 Sudoeste 16 Sudoeste 0 -- -- 75
2019-01-26 14:00:00 7.5 6 Oeste 15 Oeste 0 -- -- 81
2019-01-26 13:00:00 5.8 5 Sudoeste 10 Sudoeste 0 -- -- 84
2019-01-26 12:00:00 3.8 2 Sudoeste 4 Sudoeste 0 -- -- 94
2019-01-26 11:00:00 0.5 2 Este 12 Sur 0 -- -- 97
2019-01-26 10:00:00 0 2 Sur 4 Sur 0 -- -- 97
2019-01-26 09:00:00 -1.3 5 Sudeste 9 Sur 0 -- -- 96
2019-01-26 08:00:00 -1 4 Sudeste 6 Sudeste 0 -- -- 96
2019-01-26 07:00:00 -0.7 0 Calma 5 Oeste 0 -- -- 94
2019-01-26 06:00:00 0 0 Calma 6 Nordeste 0 -- -- 92
2019-01-26 05:00:00 0.9 2 Sudeste 10 Nordeste 0 -- -- 92
2019-01-26 04:00:00 1.4 7 Norte 13 Norte 0 -- -- 91
2019-01-26 03:00:00 2 2 Nordeste 11 Norte 0 -- -- 89
2019-01-26 02:00:00 2.4 9 Nordeste 21 Nordeste 0 -- -- 89
2019-01-26 01:00:00 3.1 12 Nordeste 19 Norte 0 -- -- 88
2019-01-26 00:00:00 3.8 12 Nordeste 25 Nordeste 0 -- -- 87
2019-01-25 23:00:00 3.7 13 Nordeste 23 Nordeste 0 -- -- 87
2019-01-25 22:00:00 3.6 7 Norte 23 Norte 0 -- -- 86
2019-01-25 21:00:00 4.8 17 Nordeste 36 Norte 0 -- -- 81
2019-01-25 20:00:00 5.2 26 Norte 41 Norte 0 -- -- 81
2019-01-25 19:00:00 5.6 21 Nordeste 43 Nordeste 0 -- -- 80
2019-01-25 18:00:00 6.8 28 Norte 43 Norte 0 -- -- 77
2019-01-25 17:00:00 7.6 21 Norte 38 Norte 0 -- -- 75
2019-01-25 16:00:00 8.4 22 Norte 39 Norte 0 -- -- 72
2019-01-25 15:00:00 8.3 22 Norte 42 Norte 0 -- -- 74
2019-01-25 14:00:00 7.5 15 Norte 50 Norte 0 -- -- 76
2019-01-25 13:00:00 8 30 Norte 51 Norte 0 -- -- 78
2019-01-25 12:00:00 7.8 31 Norte 57 Norte 0 -- -- 80
2019-01-25 11:00:00 7.2 28 Norte 48 Norte 0 -- -- 82
2019-01-25 10:00:00 6.3 15 Norte 28 Norte 0 -- -- 91
2019-01-25 09:00:00 4.5 14 Norte 23 Norte 0 -- -- 95
2019-01-25 08:00:00 4.6 15 Norte 27 Norte 0 -- -- 93
2019-01-25 07:00:00 5.6 17 Norte 32 Norte 0 -- -- 91
2019-01-25 06:00:00 6 17 Norte 28 Norte 0 -- -- 89
2019-01-25 05:00:00 5.8 15 Norte 27 Norte 0 -- -- 92
2019-01-25 04:00:00 5.8 18 Norte 33 Norte 0 -- -- 93
2019-01-25 03:00:00 5.9 18 Norte 30 Norte 0 -- -- 93
2019-01-25 02:00:00 5.9 16 Norte 31 Norte 0 -- -- 95
2019-01-25 01:00:00 6.1 19 Norte 31 Norte 0 -- -- 95
2019-01-25 00:00:00 6.4 21 Norte 36 Norte 0 -- -- 93
2019-01-24 23:00:00 6.3 16 Norte 27 Norte 0 -- -- 95
2019-01-24 22:00:00 6.4 15 Norte 26 Norte 0 -- -- 95
2019-01-24 21:00:00 6.7 20 Norte 41 Norte 0 -- -- 94
2019-01-24 20:00:00 7.1 27 Norte 43 Norte 0 -- -- 91
2019-01-24 19:00:00 7.4 27 Norte 51 Norte 0 -- -- 89
2019-01-24 18:00:00 7.7 26 Norte 48 Norte 0 -- -- 88
2019-01-24 17:00:00 7.3 22 Norte 35 Norte 0 -- -- 94
2019-01-24 16:00:00 7.1 13 Nordeste 28 Nordeste 0 -- -- 94
2019-01-24 15:00:00 6 3 Oeste 8 Norte 0 -- -- 95
2019-01-24 14:00:00 5.8 3 Nordeste 8 Nordeste 0.2 -- -- 96
2019-01-24 13:00:00 5.5 4 Nordeste 13 Nordeste 0.2 -- -- 96
2019-01-24 12:00:00 5 9 Nordeste 18 Nordeste 0.6 -- -- 96
2019-01-24 11:00:00 5.5 5 Norte 10 Nordeste 1 -- -- 97
2019-01-24 10:00:00 4.9 3 Norte 8 Nordeste 0.2 -- -- 96
2019-01-24 09:00:00 4.8 0 Calma 9 Oeste 0.4 -- -- 96
2019-01-24 08:00:00 4.8 5 Oeste 10 Oeste 0 -- -- 96
2019-01-24 07:00:00 4.8 4 Oeste 8 Sudoeste 0.2 -- -- 95
2019-01-24 06:00:00 4.6 4 Oeste 17 Sudoeste 0.2 -- -- 94
2019-01-24 05:00:00 5 6 Oeste 19 Noroeste 0 -- -- 90
2019-01-24 04:00:00 4.9 8 Oeste 14 Oeste 0 -- -- 91
2019-01-24 03:00:00 4.9 2 Oeste 6 Noroeste 0 -- -- 88
2019-01-24 02:00:00 5.1 0 Calma 11 Oeste 0 -- -- 86
2019-01-24 01:00:00 5.1 6 Sudoeste 30 Norte 0 -- -- 86
2019-01-24 00:00:00 5.5 21 Norte 41 Norte 0 -- -- 84
2019-01-23 23:00:00 5.9 23 Norte 42 Norte 0 -- -- 82
2019-01-23 22:00:00 6.4 14 Noroeste 26 Noroeste 0.2 -- -- 82
2019-01-23 21:00:00 6.8 11 Noroeste 21 Noroeste 0 -- -- 78
2019-01-23 20:00:00 6.6 16 Norte 30 Norte 0 -- -- 80
2019-01-23 19:00:00 6.7 17 Norte 28 Norte 0 -- -- 79
2019-01-23 18:00:00 7.2 16 Norte 28 Norte 0 -- -- 80
2019-01-23 17:00:00 7.8 14 Norte 23 Norte 0 -- -- 79
2019-01-23 16:00:00 8 12 Norte 21 Noroeste 0 -- -- 78
2019-01-23 15:00:00 8.8 15 Noroeste 29 Noroeste 0 -- -- 74
2019-01-23 14:00:00 8.7 18 Noroeste 33 Noroeste 0 -- -- 77
2019-01-23 13:00:00 7 8 Noroeste 29 Oeste 0 -- -- 83
2019-01-23 12:00:00 6.2 17 Oeste 31 Oeste 0 -- -- 86
2019-01-23 11:00:00 4.9 13 Oeste 32 Oeste 0 -- -- 90
2019-01-23 10:00:00 4.4 15 Oeste 32 Oeste 0 -- -- 90
2019-01-23 09:00:00 4.2 18 Oeste 40 Oeste 0 -- -- 90
2019-01-23 08:00:00 3.9 16 Oeste 32 Oeste 0 -- -- 90
2019-01-23 07:00:00 3.4 14 Oeste 33 Oeste 0 -- -- 90
2019-01-23 06:00:00 2.9 19 Sudoeste 31 Sudoeste 0 -- -- 92
2019-01-23 05:00:00 3.2 16 Oeste 34 Oeste 0 -- -- 88
2019-01-23 04:00:00 2.7 12 Oeste 33 Oeste 0 -- -- 90
2019-01-23 03:00:00 2.7 14 Oeste 30 Oeste 0 -- -- 90
2019-01-23 02:00:00 2.8 15 Oeste 31 Oeste 0 -- -- 90
2019-01-23 01:00:00 2.4 16 Oeste 28 Oeste 0 -- -- 91
2019-01-23 00:00:00 1.9 12 Oeste 26 Sudoeste 0 -- -- 92
2019-01-22 23:00:00 1.6 8 Oeste 21 Noroeste 0 -- -- 92
2019-01-22 22:00:00 2.2 11 Oeste 19 Oeste 0 -- -- 91
2019-01-22 21:00:00 2.1 6 Oeste 15 Oeste 0 -- -- 91
2019-01-22 20:00:00 2.1 4 Sudoeste 8 Oeste 0 -- -- 93
2019-01-22 19:00:00 2.4 0 Calma 13 Noroeste 0 -- -- 89
2019-01-22 18:00:00 3.2 10 Noroeste 26 Noroeste 0 -- -- 87
2019-01-22 17:00:00 3.7 9 Noroeste 25 Noroeste 0 -- -- 86
2019-01-22 16:00:00 2.8 7 Noroeste 21 Oeste 0 -- -- 95
2019-01-22 15:00:00 2.1 13 Oeste 28 Oeste 0 -- -- 95
2019-01-22 14:00:00 1.1 13 Oeste 30 Oeste 0 -- -- 97
2019-01-22 13:00:00 0.2 15 Sudoeste 23 Sudoeste 0.6 -- -- 96
2019-01-22 12:00:00 0.1 11 Sudoeste 16 Sudoeste 0.2 -- -- 94
2019-01-22 11:00:00 0.1 10 Sur 16 Sur 0 -- -- 92
2019-01-22 10:00:00 -0.4 12 Sur 15 Sur 0 -- -- 92
2019-01-22 09:00:00 -0.7 9 Sur 18 Sur 0 -- -- 92
2019-01-22 08:00:00 -1 10 Sur 13 Sur 0 -- -- 90
2019-01-22 07:00:00 -1.3 6 Sur 9 Sur 0 -- -- 91
2019-01-22 06:00:00 -1.5 4 Sur 8 Sur 0 -- -- 91
2019-01-22 05:00:00 -1.7 4 Sudeste 5 Sudeste 0 -- -- 92
2019-01-22 04:00:00 -1.4 2 Sudoeste 8 Norte 0 -- -- 92
2019-01-22 03:00:00 -2 2 Sudeste 5 Sur 0 -- -- 93
2019-01-22 02:00:00 -1.9 2 Nordeste 4 Nordeste 0 -- -- 91
2019-01-22 01:00:00 -1.2 2 Este 5 Nordeste 0 -- -- 89
2019-01-22 00:00:00 -0.9 0 Calma 3 Nordeste 0 -- -- 88
2019-01-21 23:00:00 -0.2 0 Calma 10 Oeste 0 -- -- 84
2019-01-21 22:00:00 0.4 0 Calma 12 Norte 0 -- -- 84
2019-01-21 21:00:00 0.9 8 Nordeste 13 Nordeste 0 -- -- 86
2019-01-21 20:00:00 0.9 7 Nordeste 12 Nordeste 0 -- -- 84
2019-01-21 19:00:00 1.7 7 Nordeste 31 Norte 0 -- -- 80
2019-01-21 18:00:00 3.2 19 Norte 35 Norte 0 -- -- 73
2019-01-21 17:00:00 4.7 21 Norte 37 Norte 0 -- -- 62
2019-01-21 16:00:00 4.5 23 Norte 39 Norte 0 -- -- 64
2019-01-21 15:00:00 3.9 19 Norte 36 Norte 0 -- -- 71
2019-01-21 14:00:00 3.6 20 Norte 43 Norte 0 -- -- 73
2019-01-21 13:00:00 4.1 27 Norte 60 Nordeste 0 -- -- 72
2019-01-21 12:00:00 3.2 29 Norte 45 Norte 0 -- -- 75
2019-01-21 11:00:00 1.8 16 Norte 26 Norte 0 -- -- 95
2019-01-21 10:00:00 1.4 13 Norte 21 Noroeste 0 -- -- 95
2019-01-21 09:00:00 0.4 11 Norte 18 Norte 0 -- -- 96
2019-01-21 08:00:00 0.3 9 Norte 14 Norte 0 -- -- 96
2019-01-21 07:00:00 0.3 6 Noroeste 18 Norte 0 -- -- 95
2019-01-21 06:00:00 0.4 3 Noroeste 10 Noroeste 0 -- -- 95
2019-01-21 05:00:00 0.6 8 Norte 15 Norte 0 -- -- 95
2019-01-21 04:00:00 0.4 4 Noroeste 11 Noroeste 0 -- -- 95
2019-01-21 03:00:00 0.3 8 Noroeste 12 Norte 0 -- -- 95
2019-01-21 02:00:00 0.7 4 Noroeste 11 Noroeste 0 -- -- 93
2019-01-21 01:00:00 0.8 8 Norte 15 Norte 0 -- -- 94
2019-01-21 00:00:00 0.8 3 Noroeste 8 Norte 0 -- -- 92
2019-01-20 23:00:00 1.2 5 Norte 18 Norte 0 -- -- 91
2019-01-20 22:00:00 1.4 6 Norte 23 Norte 0 -- -- 92
2019-01-20 21:00:00 1.4 13 Norte 23 Norte 0 -- -- 91
2019-01-20 20:00:00 1.9 6 Norte 25 Noroeste 0 -- -- 89
2019-01-20 19:00:00 2.8 15 Norte 37 Norte 0 -- -- 87
2019-01-20 18:00:00 4.6 19 Norte 42 Norte 0 -- -- 82
2019-01-20 17:00:00 5.2 24 Norte 42 Norte 0 -- -- 78
2019-01-20 16:00:00 5 19 Norte 42 Norte 0 -- -- 84
2019-01-20 15:00:00 6.1 24 Norte 43 Norte 0 -- -- 75
2019-01-20 14:00:00 5.7 23 Norte 39 Norte 0 -- -- 80
2019-01-20 13:00:00 5 22 Norte 36 Noroeste 0 -- -- 85
2019-01-20 12:00:00 4 23 Norte 37 Norte 0 -- -- 86
2019-01-20 11:00:00 3 13 Norte 20 Norte 0 -- -- 92
2019-01-20 10:00:00 1.3 7 Norte 25 Norte 0 -- -- 93
2019-01-20 09:00:00 1.4 12 Norte 26 Norte 0 -- -- 94
2019-01-20 08:00:00 1.5 14 Norte 27 Norte 0 -- -- 96
2019-01-20 07:00:00 1.6 12 Norte 17 Norte 0 -- -- 97
2019-01-20 06:00:00 0.7 12 Norte 17 Norte 0 -- -- 97
2019-01-20 05:00:00 1.2 10 Norte 27 Norte 0 -- -- 96
2019-01-20 04:00:00 2.4 18 Norte 39 Norte 0 -- -- 96
2019-01-20 03:00:00 2.5 15 Norte 24 Norte 0 -- -- 98
2019-01-20 02:00:00 2.3 4 Nordeste 11 Norte 0 -- -- 97
2019-01-20 01:00:00 2.5 6 Nordeste 12 Este 0.4 -- -- 97
2019-01-20 00:00:00 2.5 7 Este 10 Este 0 -- -- 97
2019-01-19 23:00:00 2.8 5 Sudeste 14 Sudeste 1.2 -- -- 97
2019-01-19 22:00:00 2.5 9 Sudeste 25 Sur 1.6 -- -- 97
2019-01-19 21:00:00 2.2 17 Sur 24 Sur 1.2 -- -- 97
2019-01-19 20:00:00 1.9 18 Sur 32 Sur 0.8 -- -- 97
2019-01-19 19:00:00 1.3 16 Sudeste 27 Sudeste 0.8 -- -- 97
2019-01-19 18:00:00 0.8 17 Sudeste 26 Sudeste 1 -- -- 97
2019-01-19 17:00:00 0.4 16 Sudeste 22 Sudeste 1.6 -- -- 98
2019-01-19 16:00:00 0.2 14 Sur 22 Sur 0.6 -- -- 98
2019-01-19 15:00:00 0.7 14 Sur 22 Sur 1 -- -- 97
2019-01-19 14:00:00 0.8 16 Sur 23 Sur 1 -- -- 98
2019-01-19 13:00:00 1.3 14 Sur 22 Sur 0.2 -- -- 98
2019-01-19 12:00:00 1 14 Sur 23 Sudoeste 0 -- -- 98
2019-01-19 11:00:00 0.3 13 Sur 22 Sur 0 -- -- 98
2019-01-19 10:00:00 0.1 14 Sur 22 Sudoeste 0 -- -- 98
2019-01-19 09:00:00 0.2 15 Sur 23 Sudoeste 0 -- -- 97
2019-01-19 08:00:00 0.6 11 Sudoeste 21 Sudoeste 0 -- -- 97
2019-01-19 07:00:00 1 10 Sudoeste 18 Sudoeste 0 -- -- 97
2019-01-19 06:00:00 1.1 11 Sudoeste 17 Sur 0 -- -- 96
2019-01-19 05:00:00 1.2 10 Sur 15 Sur 0 -- -- 94
2019-01-19 04:00:00 1.1 8 Sur 12 Sur 0 -- -- 93
2019-01-19 03:00:00 1.1 9 Sudoeste 14 Sudoeste 0 -- -- 92
2019-01-19 02:00:00 1.1 9 Sudoeste 15 Sudoeste 0 -- -- 91
2019-01-19 01:00:00 1.2 9 Sudoeste 15 Sudoeste 0 -- -- 91
2019-01-19 00:00:00 1.2 7 Sudoeste 14 Sur 0 -- -- 90